Time;durP1;ratioP1;P1;durP2;ratioP2;P2;SDS_P1;SDS_P2;PMS_P1;PMS_P2;Temp;Humidity;BMP_temperature;BMP_pressure;BME280_temperature;BME280_humidity;BME280_pressure;Samples;Min_cycle;Max_cycle;Signal;HPM_P1;HPM_P2
2022/12/06 00:01:46;;;;;;;4.35;0.93;;;5.70;99.90;;;;;;5052643;28;20037;-76
2022/12/06 00:04:15;;;;;;;7.65;1.27;;;5.70;99.90;;;;;;5053939;28;20045;-76
2022/12/06 00:06:43;;;;;;;5.88;1.00;;;5.70;99.90;;;;;;5054050;28;20125;-76
2022/12/06 00:09:23;;;;;;;4.53;1.60;;;5.70;99.90;;;;;;5054151;28;20119;-76
2022/12/06 00:11:49;;;;;;;7.70;1.30;;;5.60;99.90;;;;;;5052853;28;20049;-76
2022/12/06 00:14:15;;;;;;;4.90;1.10;;;5.60;99.90;;;;;;5052842;28;20044;-76
2022/12/06 00:16:41;;;;;;;4.60;1.30;;;5.60;99.90;;;;;;5052649;28;20052;-76
2022/12/06 00:19:07;;;;;;;12.02;2.95;;;5.60;99.90;;;;;;5053851;28;20041;-76
2022/12/06 00:21:34;;;;;;;5.55;1.35;;;5.60;99.90;;;;;;5052265;28;20052;-76
2022/12/06 00:24:04;;;;;;;7.85;1.85;;;5.60;99.90;;;;;;5052614;28;20467;-76
2022/12/06 00:26:30;;;;;;;6.65;1.20;;;5.50;99.90;;;;;;5053804;28;20045;-76
2022/12/06 00:28:58;;;;;;;7.82;1.40;;;5.50;99.90;;;;;;5053886;28;20033;-76
2022/12/06 00:31:25;;;;;;;5.03;1.13;;;5.50;99.90;;;;;;5052453;28;20052;-76
2022/12/06 00:33:52;;;;;;;5.18;1.50;;;5.50;99.90;;;;;;5052311;28;20056;-76
2022/12/06 00:36:20;;;;;;;5.18;1.75;;;5.50;99.90;;;;;;5052435;28;20053;-76
2022/12/06 00:38:46;;;;;;;5.40;1.20;;;5.50;99.90;;;;;;5053740;28;20484;-76
2022/12/06 00:41:15;;;;;;;7.22;1.40;;;5.50;99.90;;;;;;5052182;28;20137;-76
2022/12/06 00:43:41;;;;;;;8.13;2.00;;;5.50;99.90;;;;;;5051909;28;20366;-76
2022/12/06 00:46:10;;;;;;;7.13;1.27;;;5.40;99.90;;;;;;5053549;28;20041;-76
2022/12/06 00:48:36;;;;;;;4.38;1.38;;;5.40;99.90;;;;;;5052228;28;20400;-76
2022/12/06 00:51:02;;;;;;;4.47;2.08;;;5.40;99.90;;;;;;5052303;28;20047;-76
2022/12/06 00:53:30;;;;;;;5.05;1.30;;;5.40;99.90;;;;;;5052544;28;20041;-76
2022/12/06 00:55:56;;;;;;;9.98;1.60;;;5.40;99.90;;;;;;5052566;28;20084;-76
2022/12/06 00:58:22;;;;;;;8.48;1.60;;;5.40;99.90;;;;;;5053356;28;20519;-76
2022/12/06 01:00:48;;;;;;;7.45;2.25;;;5.40;99.90;;;;;;5053319;28;20437;-76
2022/12/06 01:03:17;;;;;;;5.07;1.52;;;5.40;99.90;;;;;;5053289;28;20045;-76
2022/12/06 01:05:48;;;;;;;3.90;1.60;;;5.40;99.90;;;;;;5053439;28;20095;-76
2022/12/06 01:08:15;;;;;;;6.43;2.03;;;5.50;99.90;;;;;;5053505;28;20088;-76
2022/12/06 01:10:41;;;;;;;13.13;2.00;;;5.40;99.90;;;;;;5052270;28;20044;-76
2022/12/06 01:13:07;;;;;;;4.72;1.95;;;5.40;99.90;;;;;;5052015;28;20049;-76
2022/12/06 01:15:37;;;;;;;6.07;1.73;;;5.40;99.90;;;;;;5052019;28;20052;-76
2022/12/06 01:18:03;;;;;;;6.70;1.65;;;5.50;99.90;;;;;;5053352;28;20115;-76
2022/12/06 01:20:29;;;;;;;3.67;1.67;;;5.40;99.90;;;;;;5051900;28;20057;-76
2022/12/06 01:22:55;;;;;;;7.95;1.88;;;5.40;99.90;;;;;;5052224;28;20048;-76
2022/12/06 01:25:20;;;;;;;5.53;1.88;;;5.40;99.90;;;;;;5052164;28;20396;-76
2022/12/06 01:27:46;;;;;;;7.82;1.90;;;5.40;99.90;;;;;;5053139;28;20481;-76
2022/12/06 01:30:12;;;;;;;5.95;1.70;;;5.50;99.90;;;;;;5051906;28;20037;-76
2022/12/06 01:32:37;;;;;;;4.80;2.13;;;5.40;99.90;;;;;;5053149;28;20121;-76
2022/12/06 01:35:03;;;;;;;4.30;1.35;;;5.40;99.90;;;;;;5051892;28;20033;-76
2022/12/06 01:37:29;;;;;;;9.60;1.70;;;5.40;99.90;;;;;;5052057;28;20056;-76
2022/12/06 01:39:55;;;;;;;7.03;1.85;;;5.40;99.90;;;;;;5052610;28;20036;-76
2022/12/06 01:42:20;;;;;;;4.82;1.90;;;5.30;99.90;;;;;;5052147;28;20052;-76
2022/12/06 01:44:48;;;;;;;4.47;2.05;;;5.40;99.90;;;;;;5052979;28;20041;-76
2022/12/06 01:47:23;;;;;;;7.60;2.45;;;5.30;99.90;;;;;;5051992;28;20056;-76
2022/12/06 01:50:17;;;;;;;6.25;1.85;;;5.40;99.90;;;;;;5051754;28;20056;-76
2022/12/06 01:52:54;;;;;;;;;;;5.40;99.90;;;;;;5052453;28;20052;-76
2022/12/06 01:55:24;;;;;;;7.22;1.67;;;5.30;99.90;;;;;;5056755;28;20011;-76
2022/12/06 01:57:52;;;;;;;3.47;1.33;;;5.30;99.90;;;;;;5055742;28;20052;-76
2022/12/06 02:00:18;;;;;;;7.00;1.60;;;5.30;99.90;;;;;;5055330;28;20045;-76
2022/12/06 02:02:44;;;;;;;4.70;1.30;;;5.30;99.90;;;;;;5056293;28;20137;-76
2022/12/06 02:05:12;;;;;;;6.22;1.60;;;5.20;99.90;;;;;;5055348;28;20045;-76
2022/12/06 02:07:38;;;;;;;4.65;1.70;;;5.30;99.90;;;;;;5055121;28;20052;-76
2022/12/06 02:10:04;;;;;;;6.85;1.83;;;5.30;99.90;;;;;;5055333;28;20423;-76
2022/12/06 02:12:30;;;;;;;5.00;1.65;;;5.30;99.90;;;;;;5055116;28;20120;-76
2022/12/06 02:14:56;;;;;;;6.45;1.50;;;5.20;99.90;;;;;;5055305;28;20128;-76
2022/12/06 02:17:39;;;;;;;5.07;2.03;;;5.30;99.90;;;;;;5055090;28;20488;-76
2022/12/06 02:20:10;;;;;;;;;;;5.30;99.90;;;;;;5055340;28;20049;-76
2022/12/06 02:22:52;;;;;;;4.00;1.40;;;5.30;99.90;;;;;;5055888;28;19967;-76
2022/12/06 02:25:37;;;;;;;8.27;2.10;;;5.30;99.90;;;;;;5056110;28;20067;-76
2022/12/06 02:28:20;;;;;;;3.55;1.40;;;5.20;99.90;;;;;;5056292;28;20055;-76
2022/12/06 02:31:16;;;;;;;5.28;1.83;;;5.20;99.90;;;;;;5056041;28;20044;-76
2022/12/06 02:33:51;;;;;;;6.05;1.70;;;5.10;99.90;;;;;;5054679;28;20088;-76
2022/12/06 02:36:37;;;;;;;6.75;1.63;;;5.10;99.90;;;;;;5054590;28;20045;-76
2022/12/06 02:39:27;;;;;;;7.05;1.85;;;5.00;99.90;;;;;;5055783;28;20519;-76
2022/12/06 02:42:15;;;;;;;7.13;1.73;;;5.00;99.90;;;;;;5054495;28;20485;-76
2022/12/06 02:44:54;;;;;;;9.50;1.95;;;4.90;99.90;;;;;;5054350;28;20053;-76
2022/12/06 02:47:23;;;;;;;6.60;1.88;;;4.80;99.90;;;;;;5055666;28;20554;-75
2022/12/06 02:49:53;;;;;;;5.03;1.60;;;4.80;99.90;;;;;;5054456;28;20045;-75
2022/12/06 02:52:23;;;;;;;6.25;1.63;;;4.80;99.90;;;;;;5054279;28;20451;-76
2022/12/06 02:54:50;;;;;;;4.88;1.67;;;4.80;99.90;;;;;;5054344;28;20053;-76
2022/12/06 02:57:22;;;;;;;6.47;2.05;;;4.70;99.90;;;;;;5055496;28;20044;-76
2022/12/06 02:59:52;;;;;;;6.50;2.00;;;4.80;99.90;;;;;;5054380;28;20047;-76
2022/12/06 03:02:18;;;;;;;4.93;1.88;;;4.70;99.90;;;;;;5054396;28;20481;-76
2022/12/06 03:05:08;;;;;;;7.28;1.75;;;4.60;99.90;;;;;;5053389;28;20110;-76
2022/12/06 03:07:44;;;;;;;5.07;1.50;;;4.60;99.90;;;;;;5055392;28;20048;-76
2022/12/06 03:10:28;;;;;;;3.53;2.05;;;4.60;99.90;;;;;;5054257;28;20076;-76
2022/12/06 03:13:02;;;;;;;6.20;1.60;;;4.50;99.90;;;;;;5054231;28;20128;-76
2022/12/06 03:15:52;;;;;;;6.60;1.60;;;4.40;99.90;;;;;;5054213;28;20088;-76
2022/12/06 03:18:36;;;;;;;3.85;1.98;;;4.50;99.90;;;;;;5054983;28;20370;-76
2022/12/06 03:21:05;;;;;;;3.20;2.15;;;4.50;99.90;;;;;;5054655;28;20591;-76
2022/12/06 03:23:50;;;;;;;6.15;1.77;;;4.40;99.90;;;;;;5053860;28;20051;-76
2022/12/06 03:26:22;;;;;;;7.93;2.00;;;4.30;99.90;;;;;;5053886;28;20049;-76
2022/12/06 03:28:49;;;;;;;4.63;1.50;;;4.30;99.90;;;;;;5053497;28;20045;-76
2022/12/06 03:31:15;;;;;;;6.20;1.98;;;4.30;99.90;;;;;;5053595;28;20073;-76
2022/12/06 03:33:57;;;;;;;10.23;1.92;;;4.40;99.90;;;;;;5054748;28;20134;-76
2022/12/06 03:36:25;;;;;;;3.80;1.63;;;4.30;99.90;;;;;;5053893;28;20127;-76
2022/12/06 03:39:05;;;;;;;11.35;2.80;;;4.40;99.90;;;;;;5054640;28;20047;-76
2022/12/06 03:41:44;;;;;;;9.55;1.80;;;4.40;99.90;;;;;;5053400;28;20048;-76
2022/12/06 03:44:10;;;;;;;8.07;1.77;;;4.40;99.90;;;;;;5054639;28;20080;-76
2022/12/06 03:46:39;;;;;;;6.13;1.80;;;4.30;99.90;;;;;;5053270;28;20487;-76
2022/12/06 03:49:16;;;;;;;6.47;1.88;;;4.30;99.90;;;;;;5054569;28;20037;-76
2022/12/06 03:51:43;;;;;;;9.50;2.10;;;4.40;99.90;;;;;;5053395;28;20055;-76
2022/12/06 03:54:09;;;;;;;8.13;2.42;;;4.40;99.90;;;;;;5054364;28;20058;-76
2022/12/06 03:56:37;;;;;;;4.25;1.85;;;4.40;99.90;;;;;;5053318;28;20041;-76
2022/12/06 03:59:10;;;;;;;5.80;2.05;;;4.40;99.90;;;;;;5054245;28;20044;-76
2022/12/06 04:01:36;;;;;;;5.35;1.65;;;4.50;99.90;;;;;;5054146;28;20503;-76
2022/12/06 04:04:02;;;;;;;8.80;1.52;;;4.60;99.90;;;;;;5054066;28;20049;-76
2022/12/06 04:06:28;;;;;;;7.30;1.45;;;4.70;99.90;;;;;;5054317;28;20044;-76
2022/12/06 04:09:51;;;;;;;8.30;1.50;;;4.80;99.90;;;;;;5052890;28;20053;-76
2022/12/06 04:11:40;;;;;;;4.82;1.00;;;4.80;99.90;;;;;;5052896;28;20045;-76
2022/12/06 04:14:05;;;;;;;5.30;0.65;;;4.90;99.90;;;;;;5052908;28;20447;-76
2022/12/06 04:19:15;;;;;;;4.47;1.33;;;4.90;99.90;;;;;;5052687;28;20508;-76
2022/12/06 04:24:25;;;;;;;3.38;0.80;;;4.90;99.90;;;;;;5052465;28;20057;-76
2022/12/06 04:26:50;;;;;;;2.42;0.73;;;5.00;99.90;;;;;;5052718;28;20103;-76
2022/12/06 04:40:12;;;;;;;3.95;0.50;;;4.90;99.90;;;;;;5053688;28;20063;-76
2022/12/06 04:45:22;;;;;;;4.38;0.90;;;4.90;99.90;;;;;;5053452;28;20500;-76
2022/12/06 04:47:47;;;;;;;1.40;0.60;;;4.80;99.90;;;;;;5053640;28;20052;-76
2022/12/06 04:50:13;;;;;;;4.57;0.80;;;4.80;99.90;;;;;;5052581;28;20037;-76
2022/12/06 04:52:45;;;;;;;2.80;0.68;;;4.70;99.90;;;;;;5053636;28;20381;-76
2022/12/06 04:55:10;;;;;;;4.63;0.77;;;4.80;99.90;;;;;;5053498;28;20063;-76
2022/12/06 04:57:36;;;;;;;2.03;0.65;;;4.70;99.90;;;;;;5053631;28;20076;-76
2022/12/06 05:00:02;;;;;;;4.50;0.90;;;4.70;99.90;;;;;;5052296;28;20045;-76
2022/12/06 05:02:28;;;;;;;4.88;1.58;;;4.60;99.90;;;;;;5053377;28;20396;-76
2022/12/06 05:04:53;;;;;;;9.43;0.90;;;4.60;99.90;;;;;;5052107;28;20037;-76
2022/12/06 05:07:19;;;;;;;6.72;0.90;;;4.60;99.90;;;;;;5052179;28;20115;-76
2022/12/06 05:09:45;;;;;;;5.28;0.90;;;4.70;99.90;;;;;;5052172;28;20052;-76
2022/12/06 05:12:10;;;;;;;4.40;1.00;;;4.60;99.90;;;;;;5053384;28;20079;-76
2022/12/06 05:14:36;;;;;;;7.53;1.20;;;4.60;99.90;;;;;;5051973;28;20041;-76
2022/12/06 05:17:02;;;;;;;7.13;1.58;;;4.60;99.90;;;;;;5052237;28;20045;-76
2022/12/06 05:19:27;;;;;;;8.48;1.40;;;4.60;99.90;;;;;;5053185;28;20040;-75
2022/12/06 05:21:53;;;;;;;7.50;1.25;;;4.50;99.90;;;;;;5051717;28;20098;-76
2022/12/06 05:24:19;;;;;;;4.53;1.20;;;4.50;99.90;;;;;;5051704;28;20096;-76
2022/12/06 05:26:44;;;;;;;5.63;1.08;;;4.50;99.90;;;;;;5051806;28;20086;-76
2022/12/06 05:29:10;;;;;;;4.28;1.20;;;4.50;99.90;;;;;;5054640;28;20076;-76
2022/12/06 05:31:36;;;;;;;5.22;1.35;;;4.50;99.90;;;;;;5057150;28;20097;-76
2022/12/06 05:34:01;;;;;;;6.03;0.98;;;4.50;99.90;;;;;;5055770;28;20474;-76
2022/12/06 05:36:27;;;;;;;3.85;0.95;;;4.40;99.90;;;;;;5055994;28;20055;-76
2022/12/06 05:38:53;;;;;;;4.55;0.90;;;4.40;99.90;;;;;;5055796;28;20049;-76
2022/12/06 05:41:21;;;;;;;2.88;1.08;;;4.40;99.90;;;;;;5055503;28;20060;-76
2022/12/06 05:43:46;;;;;;;6.18;1.08;;;4.40;99.90;;;;;;5055614;28;20037;-76
2022/12/06 05:46:12;;;;;;;4.05;0.77;;;4.30;99.90;;;;;;5056917;28;20056;-76
2022/12/06 05:48:38;;;;;;;3.08;1.05;;;4.30;99.90;;;;;;5055666;28;20051;-76
2022/12/06 05:51:03;;;;;;;2.85;0.90;;;4.10;99.90;;;;;;5055765;28;20052;-76
2022/12/06 05:53:29;;;;;;;3.60;1.00;;;4.10;99.90;;;;;;5055463;28;20393;-76
2022/12/06 05:56:04;;;;;;;3.65;1.02;;;3.90;99.90;;;;;;5056395;28;20572;-76
2022/12/06 05:58:29;;;;;;;5.23;1.00;;;3.80;99.90;;;;;;5055567;28;20045;-76
2022/12/06 06:00:55;;;;;;;2.83;0.82;;;3.70;99.90;;;;;;5055514;28;20805;-76
2022/12/06 06:03:21;;;;;;;1.50;0.77;;;3.60;99.90;;;;;;5056434;28;20047;-76
2022/12/06 06:05:55;;;;;;;3.67;1.02;;;3.60;99.90;;;;;;5055516;28;20044;-76
2022/12/06 06:08:24;;;;;;;3.85;1.02;;;3.40;99.90;;;;;;5055441;28;20057;-76
2022/12/06 06:10:50;;;;;;;2.65;1.02;;;3.40;99.90;;;;;;5054967;28;20496;-75
2022/12/06 06:13:16;;;;;;;8.88;1.48;;;3.40;99.90;;;;;;5055297;28;20083;-76
2022/12/06 06:15:41;;;;;;;3.63;1.00;;;3.40;99.90;;;;;;5055021;28;20393;-75
2022/12/06 06:18:07;;;;;;;6.80;2.67;;;3.10;99.90;;;;;;5056150;28;20049;-76
2022/12/06 06:20:33;;;;;;;6.93;1.52;;;3.20;99.90;;;;;;5055014;28;20052;-75
2022/12/06 06:22:59;;;;;;;5.43;1.80;;;3.00;99.90;;;;;;5054761;28;20091;-75
2022/12/06 06:25:24;;;;;;;6.68;4.53;;;3.00;99.90;;;;;;5055048;28;20052;-75
2022/12/06 06:27:51;;;;;;;15.90;9.60;;;2.90;99.90;;;;;;5056151;28;20037;-75
2022/12/06 06:30:17;;;;;;;6.93;5.10;;;2.80;99.90;;;;;;5055056;28;20093;-75
2022/12/06 06:32:43;;;;;;;6.07;3.10;;;2.80;99.90;;;;;;5054703;28;20044;-75
2022/12/06 06:35:08;;;;;;;7.18;3.30;;;2.70;99.90;;;;;;5055731;28;20048;-75
2022/12/06 06:37:34;;;;;;;8.82;2.10;;;2.60;99.90;;;;;;5054694;28;20128;-76
2022/12/06 06:40:00;;;;;;;4.70;2.00;;;2.70;99.90;;;;;;5053407;28;20037;-76
2022/12/06 06:42:26;;;;;;;3.40;1.08;;;2.60;99.90;;;;;;5055887;28;20049;-75
2022/12/06 06:44:55;;;;;;;4.88;1.30;;;2.50;99.90;;;;;;5054419;28;20037;-75
2022/12/06 06:47:21;;;;;;;5.35;1.70;;;2.60;99.90;;;;;;5054276;28;20041;-75
2022/12/06 06:49:47;;;;;;;4.63;1.50;;;2.60;99.90;;;;;;5054429;28;20045;-75
2022/12/06 06:52:16;;;;;;;4.25;1.40;;;2.60;99.90;;;;;;5055605;28;20055;-76
2022/12/06 06:54:41;;;;;;;4.38;1.85;;;2.60;99.90;;;;;;5054195;28;20476;-75
2022/12/06 06:57:07;;;;;;;3.88;1.27;;;2.60;99.90;;;;;;5055627;28;20041;-75
2022/12/06 06:59:33;;;;;;;7.53;1.30;;;2.60;99.90;;;;;;5054446;28;20063;-75
2022/12/06 07:01:58;;;;;;;3.97;1.17;;;2.70;99.90;;;;;;5054301;28;20519;-75
2022/12/06 07:04:24;;;;;;;5.05;1.90;;;2.70;99.90;;;;;;5054145;28;20444;-75
2022/12/06 07:06:50;;;;;;;5.57;1.50;;;2.70;99.90;;;;;;5055356;28;20045;-75
2022/12/06 07:09:15;;;;;;;6.45;2.78;;;2.60;99.90;;;;;;5053919;28;20041;-75
2022/12/06 07:11:41;;;;;;;9.07;3.97;;;2.70;99.90;;;;;;5055029;28;20085;-75
2022/12/06 07:14:07;;;;;;;9.00;4.07;;;2.50;99.90;;;;;;5055240;28;20120;-75
2022/12/06 07:16:32;;;;;;;6.00;3.38;;;2.60;99.90;;;;;;5054187;28;20511;-75
2022/12/06 07:19:00;;;;;;;8.25;3.13;;;2.60;99.90;;;;;;5053743;28;20067;-75
2022/12/06 07:21:26;;;;;;;7.72;3.65;;;2.50;99.90;;;;;;5053421;28;20071;-76
2022/12/06 07:23:52;;;;;;;8.93;2.83;;;2.50;99.90;;;;;;5052996;28;20392;-76
2022/12/06 07:26:20;;;;;;;4.47;1.80;;;2.60;99.90;;;;;;5052288;28;20049;-75
2022/12/06 07:28:47;;;;;;;4.32;1.50;;;2.50;99.90;;;;;;5054413;28;20040;-75
2022/12/06 07:31:16;;;;;;;3.78;1.13;;;2.40;99.90;;;;;;5053665;28;20036;-75
2022/12/06 07:33:43;;;;;;;8.85;1.40;;;2.40;99.90;;;;;;5053286;28;20114;-75
2022/12/06 07:36:10;;;;;;;6.03;1.13;;;2.50;99.90;;;;;;5054558;28;20128;-75
2022/12/06 07:38:36;;;;;;;7.40;1.25;;;2.40;99.90;;;;;;5054747;28;20029;-75
2022/12/06 07:44:59;;;;;;;3.50;1.27;;;2.50;99.90;;;;;;5054834;28;20037;-75
2022/12/06 07:46:33;;;;;;;2.80;1.10;;;2.40;99.90;;;;;;5053085;28;20060;-75
2022/12/06 07:48:59;;;;;;;6.72;1.40;;;2.40;99.90;;;;;;5054586;28;20053;-75
2022/12/06 07:51:24;;;;;;;4.80;1.52;;;2.40;99.90;;;;;;5053170;28;20049;-75
2022/12/06 07:53:50;;;;;;;2.75;1.00;;;2.50;99.90;;;;;;5053383;28;20484;-76
2022/12/06 07:56:16;;;;;;;4.47;1.50;;;2.50;99.90;;;;;;5054114;28;20562;-75
2022/12/06 07:58:41;;;;;;;6.72;1.55;;;2.60;99.90;;;;;;5053206;28;20114;-75
2022/12/06 08:01:07;;;;;;;5.13;1.58;;;2.60;99.90;;;;;;5053119;28;20037;-75
2022/12/06 08:03:32;;;;;;;3.60;1.30;;;2.50;99.90;;;;;;5054027;28;20090;-75
2022/12/06 08:05:58;;;;;;;3.88;1.40;;;2.70;99.90;;;;;;5052811;28;20044;-75
2022/12/06 08:08:24;;;;;;;4.40;1.45;;;2.60;99.90;;;;;;5052877;28;20049;-75
2022/12/06 08:10:50;;;;;;;4.10;1.65;;;2.70;99.90;;;;;;5052950;28;20087;-76
2022/12/06 08:13:15;;;;;;;4.47;1.30;;;2.70;99.90;;;;;;5052750;28;20077;-75
2022/12/06 08:15:41;;;;;;;6.97;1.60;;;2.80;99.90;;;;;;5052611;28;20048;-76
2022/12/06 08:18:07;;;;;;;4.20;1.38;;;2.80;99.90;;;;;;5052514;28;20045;-75
2022/12/06 08:20:32;;;;;;;4.00;1.60;;;2.80;99.90;;;;;;5053990;28;20040;-75
2022/12/06 08:22:58;;;;;;;5.68;2.00;;;2.80;99.90;;;;;;5052248;28;20060;-76
2022/12/06 08:25:24;;;;;;;6.00;2.00;;;3.00;99.90;;;;;;5053749;28;20045;-76
2022/12/06 08:27:49;;;;;;;6.70;2.97;;;2.90;99.90;;;;;;5053679;28;20056;-76
2022/12/06 08:30:15;;;;;;;11.60;4.50;;;3.00;99.90;;;;;;5052357;28;20041;-76
2022/12/06 08:32:41;;;;;;;8.00;5.45;;;3.10;99.90;;;;;;5052569;28;20045;-76
2022/12/06 08:35:07;;;;;;;10.30;4.90;;;3.10;99.90;;;;;;5052355;28;20044;-76
2022/12/06 08:37:33;;;;;;;4.57;2.35;;;3.20;99.90;;;;;;5052493;28;20052;-76
2022/12/06 08:39:59;;;;;;;8.73;2.42;;;3.30;99.90;;;;;;5052495;28;20053;-76
2022/12/06 08:42:24;;;;;;;6.20;1.77;;;3.20;99.90;;;;;;5052352;28;20053;-76
2022/12/06 08:44:53;;;;;;;6.90;3.67;;;3.30;99.90;;;;;;5052094;28;20057;-76
2022/12/06 08:47:19;;;;;;;5.18;2.40;;;3.30;99.90;;;;;;5045028;28;20111;-76
2022/12/06 08:49:45;;;;;;;5.20;2.00;;;3.40;99.90;;;;;;5032068;28;20053;-76
2022/12/06 08:52:11;;;;;;;5.63;2.30;;;3.60;99.90;;;;;;5032002;28;20055;-76
2022/12/06 08:54:38;;;;;;;8.68;1.95;;;3.60;99.90;;;;;;5033302;28;20076;-76
2022/12/06 08:57:03;;;;;;;13.00;5.50;;;3.70;99.90;;;;;;5032154;28;20042;-76
2022/12/06 08:59:29;;;;;;;12.40;4.50;;;3.80;99.90;;;;;;5031896;28;20107;-76
2022/12/06 09:01:55;;;;;;;9.90;4.20;;;3.80;99.90;;;;;;5032154;28;20044;-76
2022/12/06 09:04:20;;;;;;;6.57;2.45;;;4.00;99.90;;;;;;5039795;28;20477;-76
2022/12/06 09:06:46;;;;;;;9.23;5.05;;;4.00;99.90;;;;;;5049004;28;20040;-76
2022/12/06 09:09:14;;;;;;;8.05;4.25;;;4.10;99.90;;;;;;5057140;28;20052;-77
2022/12/06 09:11:40;;;;;;;8.90;3.60;;;4.00;99.90;;;;;;5055739;28;20424;-76
2022/12/06 09:14:08;;;;;;;8.80;4.15;;;4.20;99.90;;;;;;5056081;28;20487;-76
2022/12/06 09:16:33;;;;;;;8.80;4.40;;;4.10;99.90;;;;;;5056105;28;20076;-76
2022/12/06 09:18:59;;;;;;;8.10;3.30;;;4.20;99.90;;;;;;5056644;28;20535;-76
2022/12/06 09:21:29;;;;;;;11.38;2.72;;;4.20;99.90;;;;;;5055517;28;20053;-76
2022/12/06 09:23:56;;;;;;;4.57;2.25;;;4.30;99.90;;;;;;5057433;28;20504;-76
2022/12/06 09:26:22;;;;;;;7.55;2.30;;;4.40;99.90;;;;;;5055309;28;20041;-76
2022/12/06 09:28:50;;;;;;;5.88;2.13;;;4.50;99.90;;;;;;5055454;28;20052;-76
2022/12/06 09:31:17;;;;;;;5.80;2.35;;;4.50;99.90;;;;;;5055814;28;20083;-76
2022/12/06 09:33:44;;;;;;;5.65;2.58;;;4.60;99.90;;;;;;5055403;28;20049;-77
2022/12/06 09:36:18;;;;;;;6.95;2.30;;;4.70;99.90;;;;;;5055623;28;20063;-77
2022/12/06 09:38:45;;;;;;;13.07;2.83;;;4.50;99.90;;;;;;5055559;28;20049;-76
2022/12/06 09:41:29;;;;;;;6.57;2.38;;;4.60;99.90;;;;;;5055054;28;20053;-77
2022/12/06 09:44:14;;;;;;;8.35;2.40;;;4.60;99.90;;;;;;5056527;28;20048;-77
2022/12/06 09:46:51;;;;;;;7.05;2.20;;;4.60;99.90;;;;;;5056017;28;20106;-77
2022/12/06 09:49:45;;;;;;;13.30;3.97;;;4.80;99.90;;;;;;5056355;28;20519;-77
2022/12/06 09:52:49;;;;;;;17.35;6.55;;;5.10;99.90;;;;;;5056428;28;20128;-77
2022/12/06 09:55:21;;;;;;;;;;;5.30;99.90;;;;;;4998435;28;20054;-76
2022/12/06 09:58:15;;;;;;;11.45;4.85;;;5.50;99.90;;;;;;5045262;28;19940;-76
2022/12/06 10:00:48;;;;;;;10.43;4.40;;;5.60;99.90;;;;;;5054901;28;20045;-77
2022/12/06 10:03:30;;;;;;;7.40;3.53;;;5.80;99.90;;;;;;5054636;28;20047;-76
2022/12/06 10:06:01;;;;;;;7.00;3.42;;;5.80;99.90;;;;;;5056068;28;20450;-76
2022/12/06 10:08:52;;;;;;;15.50;5.57;;;5.90;99.90;;;;;;5056213;28;20116;-76
2022/12/06 10:11:39;;;;;;;17.70;4.80;;;6.10;99.90;;;;;;5049120;28;20095;-76
2022/12/06 10:14:32;;;;;;;7.78;3.92;;;6.20;99.90;;;;;;5055780;28;20044;-77
2022/12/06 10:17:00;;;;;;;;;;;6.20;99.90;;;;;;5056253;28;20164;-77
2022/12/06 10:19:26;;;;;;;5.28;1.88;;;6.20;99.90;;;;;;5056127;28;19962;-77
2022/12/06 10:22:10;;;;;;;5.40;1.98;;;6.20;99.90;;;;;;5054481;28;20052;-77
2022/12/06 10:24:46;;;;;;;4.60;1.48;;;6.30;99.90;;;;;;5054295;28;20053;-77
2022/12/06 10:27:27;;;;;;;9.68;1.63;;;6.30;99.90;;;;;;5054283;28;20044;-77
2022/12/06 10:29:54;;;;;;;6.93;1.70;;;6.40;99.90;;;;;;5055712;28;20154;-76
2022/12/06 10:32:29;;;;;;;7.20;1.67;;;6.40;99.90;;;;;;5054296;28;20049;-76
2022/12/06 10:34:57;;;;;;;5.13;1.88;;;6.40;99.90;;;;;;5055494;28;20047;-77
2022/12/06 10:37:41;;;;;;;4.03;1.75;;;6.50;99.90;;;;;;5055571;28;20141;-77
2022/12/06 10:40:48;;;;;;;5.28;2.42;;;6.60;99.90;;;;;;5055246;28;20044;-77
2022/12/06 10:43:22;;;;;;;6.25;2.17;;;6.70;99.90;;;;;;5053957;28;20072;-77
2022/12/06 10:49:00;;;;;;;5.47;1.52;;;6.90;99.90;;;;;;5053822;28;20508;-77
2022/12/06 10:51:35;;;;;;;6.63;2.00;;;7.00;99.90;;;;;;5053943;28;20392;-76
2022/12/06 10:54:24;;;;;;;3.97;1.70;;;7.00;99.90;;;;;;5054256;28;20043;-77
2022/12/06 10:56:54;;;;;;;4.28;1.42;;;7.00;99.90;;;;;;5053891;28;20053;-76
2022/12/06 10:59:35;;;;;;;4.60;1.25;;;7.10;99.90;;;;;;5050771;28;20063;-76
2022/12/06 11:02:16;;;;;;;3.35;1.30;;;7.10;99.90;;;;;;5053565;28;20045;-77
2022/12/06 11:04:45;;;;;;;6.40;1.65;;;7.10;99.90;;;;;;5053662;28;20060;-76
2022/12/06 11:07:22;;;;;;;7.57;3.28;;;7.20;99.90;;;;;;5053671;28;20053;-76
2022/12/06 11:09:54;;;;;;;5.10;2.55;;;7.20;99.90;;;;;;5051887;28;20087;-76
2022/12/06 11:12:33;;;;;;;2.92;1.48;;;7.40;99.90;;;;;;5052697;28;20041;-76
2022/12/06 11:15:17;;;;;;;3.63;1.30;;;7.40;99.90;;;;;;5053735;28;20096;-77
2022/12/06 11:17:47;;;;;;;5.05;1.30;;;7.50;99.90;;;;;;5053742;28;20053;-76
2022/12/06 11:20:51;;;;;;;2.88;1.08;;;7.50;99.90;;;;;;5052801;28;20043;-77
2022/12/06 11:24:02;;;;;;;2.70;1.33;;;7.50;99.90;;;;;;5053950;28;20049;-76
2022/12/06 11:26:53;;;;;;;4.63;1.75;;;7.50;99.90;;;;;;5034830;28;20429;-76
2022/12/06 11:29:19;;;;;;;4.55;1.38;;;7.60;99.90;;;;;;5032818;28;20068;-77
2022/12/06 11:31:54;;;;;;;4.72;1.65;;;7.70;99.90;;;;;;5034580;28;20041;-76
2022/12/06 11:34:35;;;;;;;3.90;1.50;;;7.80;99.90;;;;;;5033207;28;20045;-76
2022/12/06 11:37:01;;;;;;;4.82;1.42;;;7.70;99.90;;;;;;5034424;28;20053;-77
2022/12/06 11:39:29;;;;;;;3.33;1.20;;;7.80;99.90;;;;;;5042188;28;20037;-76
2022/12/06 11:41:58;;;;;;;4.68;1.27;;;7.70;99.90;;;;;;5046574;28;20053;-76
2022/12/06 11:44:35;;;;;;;4.80;1.40;;;7.70;99.90;;;;;;5043181;28;20052;-76
2022/12/06 11:47:01;;;;;;;6.13;1.50;;;7.60;99.90;;;;;;5035771;28;20060;-76
2022/12/06 11:49:30;;;;;;;3.92;1.48;;;7.70;99.90;;;;;;5034411;28;20046;-76
2022/12/06 11:51:59;;;;;;;7.28;1.80;;;7.50;99.90;;;;;;5033009;28;20080;-74
2022/12/06 11:54:30;;;;;;;5.45;1.67;;;7.60;99.90;;;;;;5032783;28;20045;-75
2022/12/06 11:57:01;;;;;;;4.03;1.83;;;7.60;99.90;;;;;;5033171;28;20053;-75
2022/12/06 11:59:30;;;;;;;5.30;2.17;;;7.60;99.90;;;;;;5033869;28;20148;-76
2022/12/06 12:02:02;;;;;;;6.18;2.13;;;7.60;99.90;;;;;;5032779;28;20041;-75
2022/12/06 12:04:38;;;;;;;6.45;2.40;;;7.60;99.90;;;;;;5032580;28;20064;-76
2022/12/06 12:07:08;;;;;;;5.00;2.10;;;7.50;99.90;;;;;;5032506;28;20045;-76
2022/12/06 12:09:57;;;;;;;5.40;2.00;;;7.50;99.90;;;;;;5034011;28;20444;-76
2022/12/06 12:13:42;;;;;;;3.90;2.17;;;7.50;99.90;;;;;;5051983;28;20037;-76
2022/12/06 12:15:17;;;;;;;7.25;2.30;;;7.50;99.90;;;;;;5053477;28;20053;-76
2022/12/06 12:17:46;;;;;;;5.78;2.10;;;7.40;99.90;;;;;;5052392;28;20043;-76
2022/12/06 12:20:24;;;;;;;6.05;2.00;;;7.50;99.90;;;;;;5052426;28;20073;-76
2022/12/06 12:23:15;;;;;;;3.80;1.55;;;7.50;99.90;;;;;;5050369;28;20512;-76
2022/12/06 12:25:42;;;;;;;5.25;1.90;;;7.50;99.90;;;;;;5027615;28;20069;-76
2022/12/06 12:28:26;;;;;;;4.78;1.80;;;7.50;99.90;;;;;;5032638;28;20042;-76
2022/12/06 12:30:57;;;;;;;5.55;2.47;;;7.60;99.90;;;;;;5032046;28;20046;-77
2022/12/06 12:33:28;;;;;;;8.80;1.98;;;7.50;99.90;;;;;;5032479;28;20052;-76
2022/12/06 12:36:02;;;;;;;5.95;1.85;;;7.50;99.90;;;;;;5033693;28;20041;-76
2022/12/06 12:38:42;;;;;;;4.88;1.60;;;7.60;99.90;;;;;;5032685;28;20081;-77
2022/12/06 12:41:22;;;;;;;7.22;2.40;;;7.60;99.90;;;;;;5031883;28;20508;-76
2022/12/06 12:43:59;;;;;;;9.85;3.20;;;7.60;99.90;;;;;;5032123;28;20554;-76
2022/12/06 12:46:25;;;;;;;3.13;1.42;;;7.60;99.90;;;;;;5032320;28;20053;-76
2022/12/06 12:48:51;;;;;;;3.80;1.60;;;7.60;99.90;;;;;;5032027;28;20406;-77
2022/12/06 12:51:30;;;;;;;4.90;1.80;;;7.60;99.90;;;;;;5033244;28;20645;-76
2022/12/06 12:53:59;;;;;;;5.18;2.00;;;7.50;99.90;;;;;;5033205;28;20037;-76
2022/12/06 12:56:26;;;;;;;3.60;1.13;;;7.50;99.90;;;;;;5033182;28;20049;-76
2022/12/06 12:58:54;;;;;;;4.80;1.05;;;7.60;99.90;;;;;;5045017;28;20146;-76
2022/12/06 13:01:41;;;;;;;3.75;1.45;;;7.50;99.90;;;;;;5053153;28;20040;-76
2022/12/06 13:04:35;;;;;;;3.65;1.02;;;7.50;99.90;;;;;;5051702;28;20060;-76
2022/12/06 13:07:27;;;;;;;3.22;0.90;;;7.60;99.90;;;;;;5031529;28;20140;-76
2022/12/06 13:10:04;;;;;;;2.92;0.98;;;7.60;99.90;;;;;;5025059;28;20065;-76
2022/12/06 13:12:48;;;;;;;3.47;1.17;;;7.50;99.90;;;;;;5031860;28;20081;-76
2022/12/06 13:15:36;;;;;;;2.40;0.70;;;7.50;99.90;;;;;;5032060;28;20045;-76
2022/12/06 13:18:17;;;;;;;2.47;1.17;;;7.50;99.90;;;;;;5033136;28;20057;-76
2022/12/06 13:20:44;;;;;;;4.53;1.20;;;7.60;99.90;;;;;;5038938;28;20086;-77
2022/12/06 13:23:14;;;;;;;2.58;1.02;;;7.60;99.90;;;;;;5042132;28;20094;-77
2022/12/06 13:25:44;;;;;;;3.33;1.10;;;7.60;99.90;;;;;;5040724;28;20049;-77
2022/12/06 13:28:19;;;;;;;4.65;1.00;;;7.60;99.90;;;;;;5048742;28;20060;-76
2022/12/06 13:30:49;;;;;;;6.63;1.20;;;7.60;99.90;;;;;;5051437;28;20397;-76
2022/12/06 13:33:19;;;;;;;5.47;1.50;;;7.60;99.90;;;;;;5052686;28;20049;-77
2022/12/06 13:35:58;;;;;;;5.43;1.70;;;7.60;99.90;;;;;;5051454;28;20045;-76
2022/12/06 13:38:29;;;;;;;3.08;1.70;;;7.60;99.90;;;;;;5050922;28;20512;-76
2022/12/06 13:40:57;;;;;;;4.00;1.40;;;7.60;99.90;;;;;;5051657;28;20174;-77
2022/12/06 13:43:22;;;;;;;5.28;1.35;;;7.60;99.90;;;;;;5050427;28;20052;-76